sensor_id;sensor_type;location;lat;lon;timestamp;temperature;humidity
12438;DHT22;6283;51.330;12.374;2023-07-24T00:01:58;21.50;1.00
12438;DHT22;6283;51.330;12.374;2023-07-24T00:04:23;21.50;1.00
12438;DHT22;6283;51.330;12.374;2023-07-24T00:06:49;21.50;1.00
12438;DHT22;6283;51.330;12.374;2023-07-24T00:09:15;21.40;1.00
12438;DHT22;6283;51.330;12.374;2023-07-24T00:11:40;21.40;1.00
12438;DHT22;6283;51.330;12.374;2023-07-24T00:14:06;21.30;1.00
12438;DHT22;6283;51.330;12.374;2023-07-24T00:16:32;21.30;1.00
12438;DHT22;6283;51.330;12.374;2023-07-24T00:18:57;21.30;1.00
12438;DHT22;6283;51.330;12.374;2023-07-24T00:21:23;21.30;1.00
12438;DHT22;6283;51.330;12.374;2023-07-24T00:23:48;21.20;1.00
12438;DHT22;6283;51.330;12.374;2023-07-24T00:26:14;21.20;1.00
12438;DHT22;6283;51.330;12.374;2023-07-24T00:28:40;21.20;1.00
12438;DHT22;6283;51.330;12.374;2023-07-24T00:31:05;21.20;1.00
12438;DHT22;6283;51.330;12.374;2023-07-24T00:33:31;21.10;1.00
12438;DHT22;6283;51.330;12.374;2023-07-24T00:35:57;21.10;1.00
12438;DHT22;6283;51.330;12.374;2023-07-24T00:38:23;21.10;1.00
12438;DHT22;6283;51.330;12.374;2023-07-24T00:40:49;21.10;1.00
12438;DHT22;6283;51.330;12.374;2023-07-24T00:43:15;21.00;1.00
12438;DHT22;6283;51.330;12.374;2023-07-24T00:45:41;21.10;1.00
12438;DHT22;6283;51.330;12.374;2023-07-24T00:48:06;21.00;1.00
12438;DHT22;6283;51.330;12.374;2023-07-24T00:50:32;21.00;1.00
12438;DHT22;6283;51.330;12.374;2023-07-24T00:52:58;21.00;1.00
12438;DHT22;6283;51.330;12.374;2023-07-24T00:55:24;21.10;1.00
12438;DHT22;6283;51.330;12.374;2023-07-24T00:57:50;21.00;1.00
12438;DHT22;6283;51.330;12.374;2023-07-24T01:00:16;21.10;1.00
12438;DHT22;6283;51.330;12.374;2023-07-24T01:02:43;21.00;1.00
12438;DHT22;6283;51.330;12.374;2023-07-24T01:05:08;21.00;1.00
12438;DHT22;6283;51.330;12.374;2023-07-24T01:07:36;21.00;1.00
12438;DHT22;6283;51.330;12.374;2023-07-24T01:10:02;20.90;1.00
12438;DHT22;6283;51.330;12.374;2023-07-24T01:12:32;20.90;1.00
12438;DHT22;6283;51.330;12.374;2023-07-24T01:15:08;21.00;1.00
12438;DHT22;6283;51.330;12.374;2023-07-24T01:20:20;21.00;1.00
12438;DHT22;6283;51.330;12.374;2023-07-24T01:22:50;21.00;1.00
12438;DHT22;6283;51.330;12.374;2023-07-24T01:25:33;21.00;1.00
12438;DHT22;6283;51.330;12.374;2023-07-24T01:28:07;21.10;1.00
12438;DHT22;6283;51.330;12.374;2023-07-24T01:30:33;21.00;1.00
12438;DHT22;6283;51.330;12.374;2023-07-24T01:32:58;21.00;1.00
12438;DHT22;6283;51.330;12.374;2023-07-24T01:35:25;21.00;1.00
12438;DHT22;6283;51.330;12.374;2023-07-24T01:37:52;21.00;1.00
12438;DHT22;6283;51.330;12.374;2023-07-24T01:40:17;20.90;1.00
12438;DHT22;6283;51.330;12.374;2023-07-24T01:42:44;20.90;1.00
12438;DHT22;6283;51.330;12.374;2023-07-24T01:45:10;20.90;1.00
12438;DHT22;6283;51.330;12.374;2023-07-24T01:47:36;20.90;1.00
12438;DHT22;6283;51.330;12.374;2023-07-24T01:50:02;20.90;1.00
12438;DHT22;6283;51.330;12.374;2023-07-24T01:52:28;20.90;1.00
12438;DHT22;6283;51.330;12.374;2023-07-24T01:54:54;20.90;1.00
12438;DHT22;6283;51.330;12.374;2023-07-24T01:57:19;20.90;1.00
12438;DHT22;6283;51.330;12.374;2023-07-24T01:59:45;20.80;1.00
12438;DHT22;6283;51.330;12.374;2023-07-24T02:02:11;20.80;1.00
12438;DHT22;6283;51.330;12.374;2023-07-24T02:04:36;20.80;1.00
12438;DHT22;6283;51.330;12.374;2023-07-24T02:07:02;20.80;1.00
12438;DHT22;6283;51.330;12.374;2023-07-24T02:09:28;20.70;1.00
12438;DHT22;6283;51.330;12.374;2023-07-24T02:11:53;20.70;1.00
12438;DHT22;6283;51.330;12.374;2023-07-24T02:14:20;20.70;1.00
12438;DHT22;6283;51.330;12.374;2023-07-24T02:16:46;20.70;1.00
12438;DHT22;6283;51.330;12.374;2023-07-24T02:19:11;20.70;1.00
12438;DHT22;6283;51.330;12.374;2023-07-24T02:21:37;20.70;1.00
12438;DHT22;6283;51.330;12.374;2023-07-24T02:24:03;20.70;1.00
12438;DHT22;6283;51.330;12.374;2023-07-24T02:26:29;20.60;1.00
12438;DHT22;6283;51.330;12.374;2023-07-24T02:28:54;20.60;1.00
12438;DHT22;6283;51.330;12.374;2023-07-24T02:31:20;20.60;1.00
12438;DHT22;6283;51.330;12.374;2023-07-24T02:33:46;20.60;1.00
12438;DHT22;6283;51.330;12.374;2023-07-24T02:36:12;20.50;1.00
12438;DHT22;6283;51.330;12.374;2023-07-24T02:38:37;20.50;1.00
12438;DHT22;6283;51.330;12.374;2023-07-24T02:41:03;20.60;1.00
12438;DHT22;6283;51.330;12.374;2023-07-24T02:43:28;20.50;1.00
12438;DHT22;6283;51.330;12.374;2023-07-24T02:45:54;20.50;1.00
12438;DHT22;6283;51.330;12.374;2023-07-24T02:48:20;20.50;1.00
12438;DHT22;6283;51.330;12.374;2023-07-24T02:50:47;20.50;1.00
12438;DHT22;6283;51.330;12.374;2023-07-24T02:53:14;20.50;1.00
12438;DHT22;6283;51.330;12.374;2023-07-24T02:55:43;20.50;1.00
12438;DHT22;6283;51.330;12.374;2023-07-24T02:58:10;20.50;1.00
12438;DHT22;6283;51.330;12.374;2023-07-24T03:00:35;20.60;1.00
12438;DHT22;6283;51.330;12.374;2023-07-24T03:03:01;20.50;1.00
12438;DHT22;6283;51.330;12.374;2023-07-24T03:05:27;20.60;1.00
12438;DHT22;6283;51.330;12.374;2023-07-24T03:07:52;20.60;1.00
12438;DHT22;6283;51.330;12.374;2023-07-24T03:10:18;20.50;1.00
12438;DHT22;6283;51.330;12.374;2023-07-24T03:12:43;20.50;1.00
12438;DHT22;6283;51.330;12.374;2023-07-24T03:15:09;20.40;1.00
12438;DHT22;6283;51.330;12.374;2023-07-24T03:17:35;20.40;1.00
12438;DHT22;6283;51.330;12.374;2023-07-24T03:20:08;20.40;1.00
12438;DHT22;6283;51.330;12.374;2023-07-24T03:22:34;20.40;1.00
12438;DHT22;6283;51.330;12.374;2023-07-24T03:25:00;20.40;1.00
12438;DHT22;6283;51.330;12.374;2023-07-24T03:27:25;20.40;1.00
12438;DHT22;6283;51.330;12.374;2023-07-24T03:29:51;20.40;1.00
12438;DHT22;6283;51.330;12.374;2023-07-24T03:32:17;20.40;1.00
12438;DHT22;6283;51.330;12.374;2023-07-24T03:34:42;20.40;1.00
12438;DHT22;6283;51.330;12.374;2023-07-24T03:37:08;20.30;1.00
12438;DHT22;6283;51.330;12.374;2023-07-24T03:39:33;20.30;1.00
12438;DHT22;6283;51.330;12.374;2023-07-24T03:41:59;20.30;1.00
12438;DHT22;6283;51.330;12.374;2023-07-24T03:44:25;20.40;1.00
12438;DHT22;6283;51.330;12.374;2023-07-24T03:46:50;20.40;1.00
12438;DHT22;6283;51.330;12.374;2023-07-24T03:49:16;20.40;1.00
12438;DHT22;6283;51.330;12.374;2023-07-24T03:51:41;20.40;1.00
12438;DHT22;6283;51.330;12.374;2023-07-24T03:54:07;20.40;1.00
12438;DHT22;6283;51.330;12.374;2023-07-24T03:56:33;20.40;1.00
12438;DHT22;6283;51.330;12.374;2023-07-24T03:58:58;20.50;1.00
12438;DHT22;6283;51.330;12.374;2023-07-24T04:01:24;20.50;1.00
12438;DHT22;6283;51.330;12.374;2023-07-24T04:03:49;20.50;1.00
12438;DHT22;6283;51.330;12.374;2023-07-24T04:06:15;20.50;1.00
12438;DHT22;6283;51.330;12.374;2023-07-24T04:08:41;20.50;1.00
12438;DHT22;6283;51.330;12.374;2023-07-24T04:11:06;20.60;1.00
12438;DHT22;6283;51.330;12.374;2023-07-24T04:13:32;20.60;1.00
12438;DHT22;6283;51.330;12.374;2023-07-24T04:15:57;20.60;1.00
12438;DHT22;6283;51.330;12.374;2023-07-24T04:18:24;20.60;1.00
12438;DHT22;6283;51.330;12.374;2023-07-24T04:20:50;20.60;1.00
12438;DHT22;6283;51.330;12.374;2023-07-24T04:23:15;20.70;1.00
12438;DHT22;6283;51.330;12.374;2023-07-24T04:25:41;20.70;1.00
12438;DHT22;6283;51.330;12.374;2023-07-24T04:28:07;20.70;1.00
12438;DHT22;6283;51.330;12.374;2023-07-24T04:30:33;20.70;1.00
12438;DHT22;6283;51.330;12.374;2023-07-24T04:32:58;20.70;1.00
12438;DHT22;6283;51.330;12.374;2023-07-24T04:35:24;20.70;1.00
12438;DHT22;6283;51.330;12.374;2023-07-24T04:37:51;20.70;1.00
12438;DHT22;6283;51.330;12.374;2023-07-24T04:40:17;20.80;1.00
12438;DHT22;6283;51.330;12.374;2023-07-24T04:42:43;20.70;1.00
12438;DHT22;6283;51.330;12.374;2023-07-24T04:45:09;20.80;1.00
12438;DHT22;6283;51.330;12.374;2023-07-24T04:47:34;20.80;1.00
12438;DHT22;6283;51.330;12.374;2023-07-24T04:50:02;20.80;1.00
12438;DHT22;6283;51.330;12.374;2023-07-24T04:52:28;20.90;1.00
12438;DHT22;6283;51.330;12.374;2023-07-24T04:54:53;20.90;1.00
12438;DHT22;6283;51.330;12.374;2023-07-24T04:57:19;20.90;1.00
12438;DHT22;6283;51.330;12.374;2023-07-24T04:59:44;21.00;1.00
12438;DHT22;6283;51.330;12.374;2023-07-24T05:02:10;21.00;1.00
12438;DHT22;6283;51.330;12.374;2023-07-24T05:04:35;21.10;1.00
12438;DHT22;6283;51.330;12.374;2023-07-24T05:07:01;21.20;1.00
12438;DHT22;6283;51.330;12.374;2023-07-24T05:09:27;21.20;1.00
12438;DHT22;6283;51.330;12.374;2023-07-24T05:11:52;21.30;1.00
12438;DHT22;6283;51.330;12.374;2023-07-24T05:14:18;21.40;1.00
12438;DHT22;6283;51.330;12.374;2023-07-24T05:16:43;21.50;1.00
12438;DHT22;6283;51.330;12.374;2023-07-24T05:19:09;21.50;1.00
12438;DHT22;6283;51.330;12.374;2023-07-24T05:21:35;21.60;1.00
12438;DHT22;6283;51.330;12.374;2023-07-24T05:24:00;21.70;1.00
12438;DHT22;6283;51.330;12.374;2023-07-24T05:26:26;21.80;1.00
12438;DHT22;6283;51.330;12.374;2023-07-24T05:28:52;21.80;1.00
12438;DHT22;6283;51.330;12.374;2023-07-24T05:31:18;21.90;1.00
12438;DHT22;6283;51.330;12.374;2023-07-24T05:33:44;21.90;1.00
12438;DHT22;6283;51.330;12.374;2023-07-24T05:36:09;21.90;1.00
12438;DHT22;6283;51.330;12.374;2023-07-24T05:38:35;22.00;1.00
12438;DHT22;6283;51.330;12.374;2023-07-24T05:41:02;22.00;1.00
12438;DHT22;6283;51.330;12.374;2023-07-24T05:43:29;22.00;1.00
12438;DHT22;6283;51.330;12.374;2023-07-24T05:45:56;22.00;1.00
12438;DHT22;6283;51.330;12.374;2023-07-24T05:48:23;22.10;1.00
12438;DHT22;6283;51.330;12.374;2023-07-24T05:50:49;22.10;1.00
12438;DHT22;6283;51.330;12.374;2023-07-24T05:53:15;22.20;1.00
12438;DHT22;6283;51.330;12.374;2023-07-24T05:55:41;22.20;1.00
12438;DHT22;6283;51.330;12.374;2023-07-24T05:58:08;22.30;1.00
12438;DHT22;6283;51.330;12.374;2023-07-24T06:00:33;22.40;1.00
12438;DHT22;6283;51.330;12.374;2023-07-24T06:02:59;22.40;1.00
12438;DHT22;6283;51.330;12.374;2023-07-24T06:05:25;22.50;1.00
12438;DHT22;6283;51.330;12.374;2023-07-24T06:07:50;22.60;1.00
12438;DHT22;6283;51.330;12.374;2023-07-24T06:10:16;22.70;1.00
12438;DHT22;6283;51.330;12.374;2023-07-24T06:12:42;22.80;1.00
12438;DHT22;6283;51.330;12.374;2023-07-24T06:15:07;22.90;1.00
12438;DHT22;6283;51.330;12.374;2023-07-24T06:17:33;22.90;1.00
12438;DHT22;6283;51.330;12.374;2023-07-24T06:19:59;23.00;1.00
12438;DHT22;6283;51.330;12.374;2023-07-24T06:22:25;23.10;1.00
12438;DHT22;6283;51.330;12.374;2023-07-24T06:24:50;23.10;1.00
12438;DHT22;6283;51.330;12.374;2023-07-24T06:27:16;23.20;1.00
12438;DHT22;6283;51.330;12.374;2023-07-24T06:29:42;23.30;1.00
12438;DHT22;6283;51.330;12.374;2023-07-24T06:32:07;23.40;1.00
12438;DHT22;6283;51.330;12.374;2023-07-24T06:34:34;23.40;1.00
12438;DHT22;6283;51.330;12.374;2023-07-24T06:36:59;23.50;1.00
12438;DHT22;6283;51.330;12.374;2023-07-24T06:39:25;23.70;1.00
12438;DHT22;6283;51.330;12.374;2023-07-24T06:41:54;23.70;1.00
12438;DHT22;6283;51.330;12.374;2023-07-24T06:44:21;23.80;1.00
12438;DHT22;6283;51.330;12.374;2023-07-24T06:46:47;23.80;1.00
12438;DHT22;6283;51.330;12.374;2023-07-24T06:49:12;23.90;1.00
12438;DHT22;6283;51.330;12.374;2023-07-24T06:51:38;24.00;1.00
12438;DHT22;6283;51.330;12.374;2023-07-24T06:54:04;24.00;1.00
12438;DHT22;6283;51.330;12.374;2023-07-24T06:56:30;24.00;1.00
12438;DHT22;6283;51.330;12.374;2023-07-24T06:58:56;24.10;1.00
12438;DHT22;6283;51.330;12.374;2023-07-24T07:01:22;24.30;1.00
12438;DHT22;6283;51.330;12.374;2023-07-24T07:03:48;24.40;1.00
12438;DHT22;6283;51.330;12.374;2023-07-24T07:06:13;24.50;1.00
12438;DHT22;6283;51.330;12.374;2023-07-24T07:08:39;24.60;1.00
12438;DHT22;6283;51.330;12.374;2023-07-24T07:11:05;24.80;1.00
12438;DHT22;6283;51.330;12.374;2023-07-24T07:13:30;24.80;1.00
12438;DHT22;6283;51.330;12.374;2023-07-24T07:15:56;24.80;1.00
12438;DHT22;6283;51.330;12.374;2023-07-24T07:18:22;24.80;1.00
12438;DHT22;6283;51.330;12.374;2023-07-24T07:20:49;24.80;1.00
12438;DHT22;6283;51.330;12.374;2023-07-24T07:23:15;24.80;1.00
12438;DHT22;6283;51.330;12.374;2023-07-24T07:25:40;24.80;1.00
12438;DHT22;6283;51.330;12.374;2023-07-24T07:28:09;24.90;1.00
12438;DHT22;6283;51.330;12.374;2023-07-24T07:30:34;25.00;1.00
12438;DHT22;6283;51.330;12.374;2023-07-24T07:33:00;25.00;1.00
12438;DHT22;6283;51.330;12.374;2023-07-24T07:35:26;25.00;1.00
12438;DHT22;6283;51.330;12.374;2023-07-24T07:37:52;25.10;1.00
12438;DHT22;6283;51.330;12.374;2023-07-24T07:40:17;25.20;1.00
12438;DHT22;6283;51.330;12.374;2023-07-24T07:42:43;25.20;1.00
12438;DHT22;6283;51.330;12.374;2023-07-24T07:45:10;25.30;1.00
12438;DHT22;6283;51.330;12.374;2023-07-24T07:47:36;25.40;1.00
12438;DHT22;6283;51.330;12.374;2023-07-24T07:50:03;25.40;1.00
12438;DHT22;6283;51.330;12.374;2023-07-24T07:52:29;25.40;1.00
12438;DHT22;6283;51.330;12.374;2023-07-24T07:54:54;25.50;1.00
12438;DHT22;6283;51.330;12.374;2023-07-24T07:57:20;25.50;1.00
12438;DHT22;6283;51.330;12.374;2023-07-24T07:59:46;25.50;1.00
12438;DHT22;6283;51.330;12.374;2023-07-24T08:02:11;25.50;1.00
12438;DHT22;6283;51.330;12.374;2023-07-24T08:04:37;25.50;1.00
12438;DHT22;6283;51.330;12.374;2023-07-24T08:07:03;25.40;1.00
12438;DHT22;6283;51.330;12.374;2023-07-24T08:09:29;25.40;1.00
12438;DHT22;6283;51.330;12.374;2023-07-24T08:11:54;25.50;1.00
12438;DHT22;6283;51.330;12.374;2023-07-24T08:14:20;25.60;1.00
12438;DHT22;6283;51.330;12.374;2023-07-24T08:16:48;25.70;1.00
12438;DHT22;6283;51.330;12.374;2023-07-24T08:19:14;25.80;1.00
12438;DHT22;6283;51.330;12.374;2023-07-24T08:21:39;25.70;1.00
12438;DHT22;6283;51.330;12.374;2023-07-24T08:24:06;25.80;1.00
12438;DHT22;6283;51.330;12.374;2023-07-24T08:26:32;25.80;1.00
12438;DHT22;6283;51.330;12.374;2023-07-24T08:28:57;25.80;1.00
12438;DHT22;6283;51.330;12.374;2023-07-24T08:31:23;25.90;1.00
12438;DHT22;6283;51.330;12.374;2023-07-24T08:33:49;25.90;1.00
12438;DHT22;6283;51.330;12.374;2023-07-24T08:36:15;25.90;1.00
12438;DHT22;6283;51.330;12.374;2023-07-24T08:38:41;26.00;1.00
12438;DHT22;6283;51.330;12.374;2023-07-24T08:41:10;26.00;1.00
12438;DHT22;6283;51.330;12.374;2023-07-24T08:43:37;26.10;1.00
12438;DHT22;6283;51.330;12.374;2023-07-24T08:46:04;26.10;1.00
12438;DHT22;6283;51.330;12.374;2023-07-24T08:48:35;26.10;1.00
12438;DHT22;6283;51.330;12.374;2023-07-24T08:51:05;26.10;1.00
12438;DHT22;6283;51.330;12.374;2023-07-24T08:53:32;26.20;1.00
12438;DHT22;6283;51.330;12.374;2023-07-24T08:55:59;26.20;1.00
12438;DHT22;6283;51.330;12.374;2023-07-24T08:58:25;26.30;1.00
12438;DHT22;6283;51.330;12.374;2023-07-24T09:00:51;26.30;1.00
12438;DHT22;6283;51.330;12.374;2023-07-24T09:03:18;26.30;1.00
12438;DHT22;6283;51.330;12.374;2023-07-24T09:05:44;26.30;1.00
12438;DHT22;6283;51.330;12.374;2023-07-24T09:08:10;26.40;1.00
12438;DHT22;6283;51.330;12.374;2023-07-24T09:10:36;26.50;1.00
12438;DHT22;6283;51.330;12.374;2023-07-24T09:13:02;26.60;1.00
12438;DHT22;6283;51.330;12.374;2023-07-24T09:15:39;26.60;1.00
12438;DHT22;6283;51.330;12.374;2023-07-24T09:18:04;26.60;1.00
12438;DHT22;6283;51.330;12.374;2023-07-24T09:20:39;26.70;1.00
12438;DHT22;6283;51.330;12.374;2023-07-24T09:23:05;26.90;1.00
12438;DHT22;6283;51.330;12.374;2023-07-24T09:25:31;27.00;1.00
12438;DHT22;6283;51.330;12.374;2023-07-24T09:28:01;27.10;1.00
12438;DHT22;6283;51.330;12.374;2023-07-24T09:30:26;27.20;1.00
12438;DHT22;6283;51.330;12.374;2023-07-24T09:32:55;27.20;1.00
12438;DHT22;6283;51.330;12.374;2023-07-24T09:35:21;27.20;1.00
12438;DHT22;6283;51.330;12.374;2023-07-24T09:38:05;27.10;1.00
12438;DHT22;6283;51.330;12.374;2023-07-24T09:40:46;27.10;1.00
12438;DHT22;6283;51.330;12.374;2023-07-24T09:43:22;27.00;1.00
12438;DHT22;6283;51.330;12.374;2023-07-24T09:45:49;27.00;1.00
12438;DHT22;6283;51.330;12.374;2023-07-24T09:48:17;27.00;1.00
12438;DHT22;6283;51.330;12.374;2023-07-24T09:50:45;27.10;1.00
12438;DHT22;6283;51.330;12.374;2023-07-24T09:56:20;27.20;1.00
12438;DHT22;6283;51.330;12.374;2023-07-24T09:58:49;27.30;1.00
12438;DHT22;6283;51.330;12.374;2023-07-24T10:01:21;27.30;1.00
12438;DHT22;6283;51.330;12.374;2023-07-24T10:03:50;27.20;1.00
12438;DHT22;6283;51.330;12.374;2023-07-24T10:06:17;27.30;1.00
12438;DHT22;6283;51.330;12.374;2023-07-24T10:08:43;27.40;1.00
12438;DHT22;6283;51.330;12.374;2023-07-24T10:11:13;27.40;1.00
12438;DHT22;6283;51.330;12.374;2023-07-24T10:13:43;27.40;1.00
12438;DHT22;6283;51.330;12.374;2023-07-24T10:16:09;27.50;1.00
12438;DHT22;6283;51.330;12.374;2023-07-24T10:18:43;27.50;1.00
12438;DHT22;6283;51.330;12.374;2023-07-24T10:21:09;27.60;1.00
12438;DHT22;6283;51.330;12.374;2023-07-24T10:23:37;27.70;1.00
12438;DHT22;6283;51.330;12.374;2023-07-24T10:26:04;27.70;1.00
12438;DHT22;6283;51.330;12.374;2023-07-24T10:28:35;27.70;1.00
12438;DHT22;6283;51.330;12.374;2023-07-24T10:31:23;27.60;1.00
12438;DHT22;6283;51.330;12.374;2023-07-24T10:33:49;27.70;1.00
12438;DHT22;6283;51.330;12.374;2023-07-24T10:36:21;27.90;1.00
12438;DHT22;6283;51.330;12.374;2023-07-24T10:38:55;28.00;1.00
12438;DHT22;6283;51.330;12.374;2023-07-24T10:41:22;28.00;1.00
12438;DHT22;6283;51.330;12.374;2023-07-24T10:43:49;27.90;1.00
12438;DHT22;6283;51.330;12.374;2023-07-24T10:46:17;28.00;1.00
12438;DHT22;6283;51.330;12.374;2023-07-24T10:48:46;28.10;1.00
12438;DHT22;6283;51.330;12.374;2023-07-24T10:51:12;28.10;1.00
12438;DHT22;6283;51.330;12.374;2023-07-24T10:53:43;28.20;1.00
12438;DHT22;6283;51.330;12.374;2023-07-24T10:56:09;28.20;1.00
12438;DHT22;6283;51.330;12.374;2023-07-24T10:58:36;28.20;1.00
12438;DHT22;6283;51.330;12.374;2023-07-24T11:01:04;28.30;1.00
12438;DHT22;6283;51.330;12.374;2023-07-24T11:03:30;28.30;1.00
12438;DHT22;6283;51.330;12.374;2023-07-24T11:05:58;28.20;1.00
12438;DHT22;6283;51.330;12.374;2023-07-24T11:08:24;28.20;1.00
12438;DHT22;6283;51.330;12.374;2023-07-24T11:10:54;28.20;1.00
12438;DHT22;6283;51.330;12.374;2023-07-24T11:13:23;28.10;1.00
12438;DHT22;6283;51.330;12.374;2023-07-24T11:15:52;28.10;1.00
12438;DHT22;6283;51.330;12.374;2023-07-24T11:18:19;28.10;1.00
12438;DHT22;6283;51.330;12.374;2023-07-24T11:20:52;28.10;1.00
12438;DHT22;6283;51.330;12.374;2023-07-24T11:23:17;28.10;1.00
12438;DHT22;6283;51.330;12.374;2023-07-24T11:25:44;28.10;1.00
12438;DHT22;6283;51.330;12.374;2023-07-24T11:28:11;28.10;1.00
12438;DHT22;6283;51.330;12.374;2023-07-24T11:30:37;28.10;1.00
12438;DHT22;6283;51.330;12.374;2023-07-24T11:33:05;28.00;1.00
12438;DHT22;6283;51.330;12.374;2023-07-24T11:35:32;28.00;1.00
12438;DHT22;6283;51.330;12.374;2023-07-24T11:37:58;28.00;1.00
12438;DHT22;6283;51.330;12.374;2023-07-24T11:43:00;28.00;1.00
12438;DHT22;6283;51.330;12.374;2023-07-24T11:45:26;28.10;1.00
12438;DHT22;6283;51.330;12.374;2023-07-24T11:47:54;28.10;1.00
12438;DHT22;6283;51.330;12.374;2023-07-24T11:50:21;28.20;1.00
12438;DHT22;6283;51.330;12.374;2023-07-24T11:52:49;28.30;1.00
12438;DHT22;6283;51.330;12.374;2023-07-24T11:55:29;28.40;1.00
12438;DHT22;6283;51.330;12.374;2023-07-24T11:57:59;28.40;1.00
12438;DHT22;6283;51.330;12.374;2023-07-24T12:00:26;28.40;1.00
12438;DHT22;6283;51.330;12.374;2023-07-24T12:03:00;28.50;1.00
12438;DHT22;6283;51.330;12.374;2023-07-24T12:05:26;28.60;1.00
12438;DHT22;6283;51.330;12.374;2023-07-24T12:07:54;28.70;1.00
12438;DHT22;6283;51.330;12.374;2023-07-24T12:10:27;28.90;1.00
12438;DHT22;6283;51.330;12.374;2023-07-24T12:12:53;29.30;1.00
12438;DHT22;6283;51.330;12.374;2023-07-24T12:15:19;29.50;1.00
12438;DHT22;6283;51.330;12.374;2023-07-24T12:17:45;29.80;1.00
12438;DHT22;6283;51.330;12.374;2023-07-24T12:20:11;29.90;1.00
12438;DHT22;6283;51.330;12.374;2023-07-24T12:22:38;30.10;1.00
12438;DHT22;6283;51.330;12.374;2023-07-24T12:25:05;30.00;1.00
12438;DHT22;6283;51.330;12.374;2023-07-24T12:27:31;30.20;1.00
12438;DHT22;6283;51.330;12.374;2023-07-24T12:29:58;30.20;1.00
12438;DHT22;6283;51.330;12.374;2023-07-24T12:32:24;30.20;1.00
12438;DHT22;6283;51.330;12.374;2023-07-24T12:34:51;30.20;1.00
12438;DHT22;6283;51.330;12.374;2023-07-24T12:37:17;30.00;1.00
12438;DHT22;6283;51.330;12.374;2023-07-24T12:39:47;30.00;1.00
12438;DHT22;6283;51.330;12.374;2023-07-24T12:42:16;30.20;1.00
12438;DHT22;6283;51.330;12.374;2023-07-24T12:44:42;30.30;1.00
12438;DHT22;6283;51.330;12.374;2023-07-24T12:47:10;30.60;1.00
12438;DHT22;6283;51.330;12.374;2023-07-24T12:49:36;30.60;1.00
12438;DHT22;6283;51.330;12.374;2023-07-24T12:52:03;30.50;1.00
12438;DHT22;6283;51.330;12.374;2023-07-24T12:54:29;30.30;1.00
12438;DHT22;6283;51.330;12.374;2023-07-24T12:56:54;29.80;1.00
12438;DHT22;6283;51.330;12.374;2023-07-24T12:59:20;29.50;1.00
12438;DHT22;6283;51.330;12.374;2023-07-24T13:01:46;29.20;1.00
12438;DHT22;6283;51.330;12.374;2023-07-24T13:04:12;28.90;1.00
12438;DHT22;6283;51.330;12.374;2023-07-24T13:06:38;28.80;1.00
12438;DHT22;6283;51.330;12.374;2023-07-24T13:09:04;28.50;1.00
12438;DHT22;6283;51.330;12.374;2023-07-24T13:11:30;28.40;1.00
12438;DHT22;6283;51.330;12.374;2023-07-24T13:13:56;28.20;1.00
12438;DHT22;6283;51.330;12.374;2023-07-24T13:16:22;28.10;1.00
12438;DHT22;6283;51.330;12.374;2023-07-24T13:18:48;28.00;1.00
12438;DHT22;6283;51.330;12.374;2023-07-24T13:21:14;27.90;1.00
12438;DHT22;6283;51.330;12.374;2023-07-24T13:23:40;27.80;1.00
12438;DHT22;6283;51.330;12.374;2023-07-24T13:26:06;27.70;1.00
12438;DHT22;6283;51.330;12.374;2023-07-24T13:28:34;27.60;1.00
12438;DHT22;6283;51.330;12.374;2023-07-24T13:31:10;27.60;1.00
12438;DHT22;6283;51.330;12.374;2023-07-24T13:33:36;27.60;1.00
12438;DHT22;6283;51.330;12.374;2023-07-24T13:36:02;27.60;1.00
12438;DHT22;6283;51.330;12.374;2023-07-24T13:38:28;27.60;1.00
12438;DHT22;6283;51.330;12.374;2023-07-24T13:40:53;27.50;1.00
12438;DHT22;6283;51.330;12.374;2023-07-24T13:43:19;27.50;1.00
12438;DHT22;6283;51.330;12.374;2023-07-24T13:45:45;27.60;1.00
12438;DHT22;6283;51.330;12.374;2023-07-24T13:48:10;27.70;1.00
12438;DHT22;6283;51.330;12.374;2023-07-24T13:50:36;27.80;1.00
12438;DHT22;6283;51.330;12.374;2023-07-24T13:53:01;27.80;1.00
12438;DHT22;6283;51.330;12.374;2023-07-24T13:55:27;28.00;1.00
12438;DHT22;6283;51.330;12.374;2023-07-24T13:57:53;28.10;1.00
12438;DHT22;6283;51.330;12.374;2023-07-24T14:00:18;28.30;1.00
12438;DHT22;6283;51.330;12.374;2023-07-24T14:02:44;28.40;1.00
12438;DHT22;6283;51.330;12.374;2023-07-24T14:05:10;28.50;1.00
12438;DHT22;6283;51.330;12.374;2023-07-24T14:07:35;28.60;1.00
12438;DHT22;6283;51.330;12.374;2023-07-24T14:10:01;28.60;1.00
12438;DHT22;6283;51.330;12.374;2023-07-24T14:12:27;28.70;1.00
12438;DHT22;6283;51.330;12.374;2023-07-24T14:14:52;28.50;1.00
12438;DHT22;6283;51.330;12.374;2023-07-24T14:17:18;28.50;1.00
12438;DHT22;6283;51.330;12.374;2023-07-24T14:19:44;28.30;1.00
12438;DHT22;6283;51.330;12.374;2023-07-24T14:22:10;28.20;1.00
12438;DHT22;6283;51.330;12.374;2023-07-24T14:24:36;28.20;1.00
12438;DHT22;6283;51.330;12.374;2023-07-24T14:27:01;28.30;1.00
12438;DHT22;6283;51.330;12.374;2023-07-24T14:29:27;28.30;1.00
12438;DHT22;6283;51.330;12.374;2023-07-24T14:31:52;28.30;1.00
12438;DHT22;6283;51.330;12.374;2023-07-24T14:34:18;28.20;1.00
12438;DHT22;6283;51.330;12.374;2023-07-24T14:36:44;28.40;1.00
12438;DHT22;6283;51.330;12.374;2023-07-24T14:39:09;28.40;1.00
12438;DHT22;6283;51.330;12.374;2023-07-24T14:41:35;28.50;1.00
12438;DHT22;6283;51.330;12.374;2023-07-24T14:44:01;28.80;1.00
12438;DHT22;6283;51.330;12.374;2023-07-24T14:46:26;29.20;1.00
12438;DHT22;6283;51.330;12.374;2023-07-24T14:48:52;29.60;1.00
12438;DHT22;6283;51.330;12.374;2023-07-24T14:51:18;29.90;1.00
12438;DHT22;6283;51.330;12.374;2023-07-24T14:53:43;30.20;1.00
12438;DHT22;6283;51.330;12.374;2023-07-24T14:56:09;30.40;1.00
12438;DHT22;6283;51.330;12.374;2023-07-24T14:58:34;30.40;1.00
12438;DHT22;6283;51.330;12.374;2023-07-24T15:01:00;30.40;1.00
12438;DHT22;6283;51.330;12.374;2023-07-24T15:03:26;30.30;1.00
12438;DHT22;6283;51.330;12.374;2023-07-24T15:05:51;30.00;1.00
12438;DHT22;6283;51.330;12.374;2023-07-24T15:08:17;29.70;1.00
12438;DHT22;6283;51.330;12.374;2023-07-24T15:10:43;29.50;1.00
12438;DHT22;6283;51.330;12.374;2023-07-24T15:13:13;29.30;1.00
12438;DHT22;6283;51.330;12.374;2023-07-24T15:15:39;29.00;1.00
12438;DHT22;6283;51.330;12.374;2023-07-24T15:18:04;28.70;1.00
12438;DHT22;6283;51.330;12.374;2023-07-24T15:20:31;28.60;1.00
12438;DHT22;6283;51.330;12.374;2023-07-24T15:22:57;28.50;1.00
12438;DHT22;6283;51.330;12.374;2023-07-24T15:25:22;28.40;1.00
12438;DHT22;6283;51.330;12.374;2023-07-24T15:27:48;28.40;1.00
12438;DHT22;6283;51.330;12.374;2023-07-24T15:30:14;28.40;1.00
12438;DHT22;6283;51.330;12.374;2023-07-24T15:32:39;28.80;1.00
12438;DHT22;6283;51.330;12.374;2023-07-24T15:35:05;29.20;1.00
12438;DHT22;6283;51.330;12.374;2023-07-24T15:37:31;29.40;1.00
12438;DHT22;6283;51.330;12.374;2023-07-24T15:39:58;29.50;1.00
12438;DHT22;6283;51.330;12.374;2023-07-24T15:42:24;29.40;1.00
12438;DHT22;6283;51.330;12.374;2023-07-24T15:44:50;29.00;1.00
12438;DHT22;6283;51.330;12.374;2023-07-24T15:47:16;28.80;1.00
12438;DHT22;6283;51.330;12.374;2023-07-24T15:49:42;28.70;1.00